createdAt,value
2023-01-17T00:00:32.925Z,5.24
2023-01-17T00:01:32.776Z,5.33
2023-01-17T00:02:32.881Z,5.24
2023-01-17T00:03:32.860Z,5.37
2023-01-17T00:04:32.753Z,5.24
2023-01-17T00:05:32.708Z,5.12
2023-01-17T00:06:32.744Z,5.02
2023-01-17T00:07:32.674Z,5.06
2023-01-17T00:08:32.661Z,5.12
2023-01-17T00:09:32.640Z,5.11
2023-01-17T00:10:32.626Z,5.22
2023-01-17T00:11:32.609Z,5.06
2023-01-17T00:12:32.613Z,5.11
2023-01-17T00:13:32.580Z,5.08
2023-01-17T00:14:32.568Z,5.09
2023-01-17T00:15:32.541Z,5.02
2023-01-17T00:16:32.528Z,5.02
2023-01-17T00:17:32.504Z,4.80
2023-01-17T00:18:32.494Z,4.84
2023-01-17T00:19:32.493Z,4.91
2023-01-17T00:20:32.456Z,4.96
2023-01-17T00:21:32.435Z,4.87
2023-01-17T00:22:32.422Z,4.94
2023-01-17T00:23:32.419Z,4.88
2023-01-17T00:24:32.389Z,4.87
2023-01-17T00:25:32.374Z,4.71
2023-01-17T00:26:32.355Z,4.69
2023-01-17T00:27:32.334Z,4.86
2023-01-17T00:28:32.320Z,4.84
2023-01-17T00:29:32.298Z,4.86
2023-01-17T00:30:32.285Z,4.79
2023-01-17T00:31:32.312Z,4.84
2023-01-17T00:32:32.265Z,4.72
2023-01-17T00:33:32.235Z,4.79
2023-01-17T00:34:32.219Z,4.74
2023-01-17T00:35:32.218Z,4.69
2023-01-17T00:36:32.192Z,4.69
2023-01-17T00:37:32.163Z,4.74
2023-01-17T00:38:32.152Z,4.69
2023-01-17T00:39:32.129Z,4.65
2023-01-17T00:40:32.117Z,4.61
2023-01-17T00:41:32.095Z,4.56
2023-01-17T00:42:32.082Z,4.62
2023-01-17T00:43:32.064Z,4.53
2023-01-17T00:44:32.047Z,4.54
2023-01-17T00:45:32.030Z,4.77
2023-01-17T00:46:32.056Z,4.65
2023-01-17T00:47:31.993Z,4.65
2023-01-17T00:48:31.979Z,4.64
2023-01-17T00:49:31.958Z,4.61
2023-01-17T00:50:31.944Z,4.62
2023-01-17T00:51:31.947Z,4.68
2023-01-17T00:52:31.962Z,4.71
2023-01-17T00:53:31.891Z,4.75
2023-01-17T00:54:31.876Z,4.68
2023-01-17T00:55:31.857Z,4.69
2023-01-17T00:56:31.845Z,4.62
2023-01-17T00:57:31.841Z,4.61
2023-01-17T00:58:31.808Z,4.69
2023-01-17T00:59:31.789Z,4.83
2023-01-17T01:00:31.880Z,4.97
2023-01-17T01:01:31.900Z,4.86
2023-01-17T01:02:31.816Z,4.88
2023-01-17T01:03:31.726Z,4.88
2023-01-17T01:04:31.716Z,4.83
2023-01-17T01:05:31.702Z,4.83
2023-01-17T01:06:31.682Z,4.72
2023-01-17T01:07:31.683Z,4.79
2023-01-17T01:08:31.639Z,4.69
2023-01-17T01:09:31.619Z,4.59
2023-01-17T01:10:31.604Z,4.79
2023-01-17T01:11:31.586Z,5.01
2023-01-17T01:12:31.571Z,4.87
2023-01-17T01:13:31.549Z,4.84
2023-01-17T01:14:31.537Z,4.84
2023-01-17T01:15:31.516Z,4.77
2023-01-17T01:16:31.512Z,4.80
2023-01-17T01:17:31.483Z,4.83
2023-01-17T01:18:31.470Z,4.90
2023-01-17T01:19:31.453Z,4.87
2023-01-17T01:20:31.439Z,4.90
2023-01-17T01:23:15.031Z,4.79
2023-01-17T01:24:14.985Z,4.80
2023-01-17T01:25:14.975Z,4.74
2023-01-17T01:26:14.950Z,4.69
2023-01-17T01:27:14.935Z,4.75
2023-01-17T01:28:14.915Z,4.65
2023-01-17T01:29:14.902Z,4.53
2023-01-17T01:30:14.881Z,4.59
2023-01-17T01:31:15.005Z,4.67
2023-01-17T01:32:14.848Z,4.64
2023-01-17T01:33:14.841Z,4.57
2023-01-17T01:34:14.826Z,4.59
2023-01-17T01:35:14.806Z,4.56
2023-01-17T01:36:14.806Z,4.61
2023-01-17T01:37:14.770Z,4.54
2023-01-17T01:38:14.757Z,4.47
2023-01-17T01:39:14.759Z,4.51
2023-01-17T01:40:14.713Z,4.49
2023-01-17T01:41:14.698Z,4.44
2023-01-17T01:42:14.683Z,4.39
2023-01-17T01:43:14.664Z,4.43
2023-01-17T01:44:14.647Z,4.32
2023-01-17T01:45:14.633Z,4.32
2023-01-17T01:46:14.613Z,4.32
2023-01-17T01:47:14.601Z,4.32
2023-01-17T01:48:14.579Z,4.36
2023-01-17T01:49:14.726Z,4.36
2023-01-17T01:50:14.541Z,4.36
2023-01-17T01:51:14.528Z,4.47
2023-01-17T01:52:14.508Z,4.53
2023-01-17T01:53:14.493Z,4.49
2023-01-17T01:54:14.474Z,4.50
2023-01-17T01:55:14.481Z,4.46
2023-01-17T01:56:14.438Z,4.47
2023-01-17T01:57:14.422Z,4.39
2023-01-17T01:58:14.414Z,4.38
2023-01-17T01:59:14.389Z,4.39
2023-01-17T02:00:14.371Z,4.53
2023-01-17T02:01:14.457Z,4.44
2023-01-17T02:02:14.341Z,4.44
2023-01-17T02:03:14.324Z,4.44
2023-01-17T02:04:14.302Z,4.50
2023-01-17T02:05:14.286Z,4.61
2023-01-17T02:06:14.268Z,4.50
2023-01-17T02:07:14.257Z,4.44
2023-01-17T02:08:14.238Z,4.46
2023-01-17T02:09:14.221Z,4.42
2023-01-17T02:10:14.207Z,4.44
2023-01-17T02:11:14.206Z,4.31
2023-01-17T02:12:14.166Z,4.28
2023-01-17T02:13:14.150Z,4.20
2023-01-17T02:14:14.130Z,4.08
2023-01-17T02:15:14.114Z,4.20
2023-01-17T02:16:14.222Z,4.20
2023-01-17T02:17:14.093Z,4.17
2023-01-17T02:18:14.061Z,4.08
2023-01-17T02:19:14.051Z,4.07
2023-01-17T02:20:14.038Z,3.95
2023-01-17T02:21:14.023Z,3.99
2023-01-17T02:22:13.993Z,3.92
2023-01-17T02:23:13.981Z,3.81
2023-01-17T02:24:13.970Z,3.84
2023-01-17T02:25:13.946Z,3.80
2023-01-17T02:26:13.925Z,3.80
2023-01-17T02:27:13.935Z,3.80
2023-01-17T02:28:13.889Z,3.81
2023-01-17T02:29:13.875Z,3.84
2023-01-17T02:30:13.865Z,4.04
2023-01-17T02:31:13.843Z,4.16
2023-01-17T02:32:13.821Z,4.20
2023-01-17T02:33:13.812Z,4.17
2023-01-17T02:34:13.787Z,4.24
2023-01-17T02:35:13.785Z,4.26
2023-01-17T02:36:13.755Z,4.56
2023-01-17T02:37:13.741Z,4.67
2023-01-17T02:38:13.716Z,4.67
2023-01-17T02:39:13.703Z,4.47
2023-01-17T02:40:13.701Z,4.43
2023-01-17T02:41:13.678Z,4.39
2023-01-17T02:42:13.648Z,4.24
2023-01-17T02:43:13.661Z,4.16
2023-01-17T02:44:13.617Z,4.14
2023-01-17T02:45:13.599Z,4.20
2023-01-17T02:46:13.687Z,4.26
2023-01-17T02:47:13.565Z,4.26
2023-01-17T02:48:13.544Z,4.10
2023-01-17T02:49:13.535Z,4.11
2023-01-17T02:50:13.558Z,4.13
2023-01-17T02:51:13.495Z,3.96
2023-01-17T02:52:13.509Z,4.02
2023-01-17T02:53:13.469Z,4.06
2023-01-17T02:54:13.440Z,3.96
2023-01-17T02:55:13.428Z,3.93
2023-01-17T02:56:13.409Z,3.93
2023-01-17T02:57:13.393Z,3.99
2023-01-17T02:58:13.425Z,3.99
2023-01-17T02:59:13.380Z,3.95
2023-01-17T03:00:13.341Z,3.86
2023-01-17T03:01:13.383Z,3.99
2023-01-17T03:02:13.501Z,3.95
2023-01-17T03:03:13.288Z,3.96
2023-01-17T03:04:13.267Z,3.95
2023-01-17T03:05:13.257Z,3.93
2023-01-17T03:06:13.233Z,4.00
2023-01-17T03:07:13.219Z,3.82
2023-01-17T03:08:13.198Z,3.89
2023-01-17T03:09:13.185Z,3.98
2023-01-17T03:10:13.165Z,4.32
2023-01-17T03:11:13.149Z,4.34
2023-01-17T03:12:13.136Z,4.32
2023-01-17T03:13:13.115Z,4.25
2023-01-17T03:14:13.094Z,4.26
2023-01-17T03:15:13.134Z,4.43
2023-01-17T03:16:13.110Z,4.51
2023-01-17T03:17:13.047Z,4.56
2023-01-17T03:18:13.028Z,4.54
2023-01-17T03:19:13.011Z,4.50
2023-01-17T03:20:13.010Z,4.46
2023-01-17T03:21:12.979Z,4.21
2023-01-17T03:22:12.958Z,4.16
2023-01-17T03:23:12.940Z,4.24
2023-01-17T03:24:12.922Z,4.13
2023-01-17T03:25:12.905Z,3.98
2023-01-17T03:26:12.885Z,3.80
2023-01-17T03:27:12.871Z,3.72
2023-01-17T03:28:12.851Z,3.68
2023-01-17T03:29:12.855Z,3.57
2023-01-17T03:30:12.818Z,3.56
2023-01-17T03:31:12.826Z,3.60
2023-01-17T03:32:12.779Z,3.63
2023-01-17T03:33:12.778Z,3.42
2023-01-17T03:34:12.746Z,3.44
2023-01-17T03:35:12.732Z,3.53
2023-01-17T03:36:12.762Z,3.46
2023-01-17T03:37:12.698Z,3.46
2023-01-17T03:38:12.687Z,3.41
2023-01-17T03:39:12.668Z,3.34
2023-01-17T03:40:12.642Z,3.37
2023-01-17T03:41:12.630Z,3.17
2023-01-17T03:42:12.606Z,3.26
2023-01-17T03:43:12.599Z,3.16
2023-01-17T03:44:12.571Z,3.10
2023-01-17T03:45:12.557Z,3.04
2023-01-17T03:46:12.583Z,2.97
2023-01-17T03:47:12.538Z,2.92
2023-01-17T03:48:12.499Z,2.87
2023-01-17T03:49:12.485Z,3.02
2023-01-17T03:50:12.466Z,2.90
2023-01-17T03:51:12.452Z,3.02
2023-01-17T03:52:12.431Z,3.12
2023-01-17T03:53:12.415Z,3.12
2023-01-17T03:54:12.397Z,3.16
2023-01-17T03:55:12.385Z,3.20
2023-01-17T03:56:12.360Z,3.16
2023-01-17T03:57:12.344Z,3.16
2023-01-17T03:58:12.325Z,3.13
2023-01-17T03:59:13.304Z,3.17
2023-01-17T04:00:12.288Z,3.15
2023-01-17T04:01:12.397Z,3.28
2023-01-17T04:02:12.428Z,3.26
2023-01-17T04:03:12.264Z,3.10
2023-01-17T04:04:12.224Z,3.07
2023-01-17T04:05:12.252Z,3.01
2023-01-17T04:06:12.179Z,3.04
2023-01-17T04:07:12.170Z,2.99
2023-01-17T04:08:12.147Z,2.90
2023-01-17T04:09:12.131Z,2.92
2023-01-17T04:10:12.113Z,2.86
2023-01-17T04:11:12.096Z,2.89
2023-01-17T04:12:12.076Z,2.84
2023-01-17T04:13:12.066Z,2.81
2023-01-17T04:14:12.040Z,2.80
2023-01-17T04:15:12.026Z,2.87
2023-01-17T04:16:12.010Z,2.74
2023-01-17T04:17:11.990Z,2.66
2023-01-17T04:18:11.968Z,2.66
2023-01-17T04:19:11.979Z,2.80
2023-01-17T04:20:11.936Z,2.80
2023-01-17T04:21:11.921Z,2.84
2023-01-17T04:22:11.901Z,2.76
2023-01-17T04:23:11.892Z,2.76
2023-01-17T04:24:11.861Z,2.65
2023-01-17T04:25:11.848Z,2.77
2023-01-17T04:26:11.828Z,2.86
2023-01-17T04:27:11.813Z,2.87
2023-01-17T04:28:11.803Z,2.79
2023-01-17T04:29:11.791Z,2.77
2023-01-17T04:30:11.755Z,2.83
2023-01-17T04:31:11.900Z,2.84
2023-01-17T04:32:11.719Z,2.76
2023-01-17T04:33:11.704Z,2.77
2023-01-17T04:34:11.690Z,2.63
2023-01-17T04:35:11.714Z,2.65
2023-01-17T04:36:11.647Z,2.55
2023-01-17T04:37:11.633Z,2.53
2023-01-17T04:38:11.612Z,2.51
2023-01-17T04:39:11.607Z,2.44
2023-01-17T04:40:11.598Z,2.41
2023-01-17T04:41:11.565Z,2.40
2023-01-17T04:42:11.540Z,2.45
2023-01-17T04:43:11.532Z,2.41
2023-01-17T04:44:11.517Z,2.44
2023-01-17T04:45:11.490Z,2.37
2023-01-17T04:46:11.511Z,2.36
2023-01-17T04:47:11.452Z,2.22
2023-01-17T04:48:11.432Z,2.20
2023-01-17T04:49:11.420Z,2.30
2023-01-17T04:50:11.395Z,2.27
2023-01-17T04:51:11.402Z,2.26
2023-01-17T04:52:11.359Z,2.26
2023-01-17T04:53:11.343Z,2.25
2023-01-17T04:54:11.326Z,2.18
2023-01-17T04:55:11.309Z,2.11
2023-01-17T04:56:11.306Z,2.14
2023-01-17T04:57:11.281Z,2.25
2023-01-17T04:58:11.254Z,2.15
2023-01-17T04:59:11.237Z,2.15
2023-01-17T05:00:11.214Z,2.18
2023-01-17T05:01:11.432Z,2.07
2023-01-17T05:02:11.257Z,2.07
2023-01-17T05:03:11.165Z,2.12
2023-01-17T05:04:11.143Z,2.09
2023-01-17T05:05:11.130Z,2.15
2023-01-17T05:06:11.106Z,2.02
2023-01-17T05:07:11.119Z,2.00
2023-01-17T05:08:11.071Z,2.11
2023-01-17T05:09:11.114Z,2.02
2023-01-17T05:10:11.034Z,2.00
2023-01-17T05:11:11.023Z,2.07
2023-01-17T05:12:10.996Z,2.04
2023-01-17T05:13:10.981Z,2.07
2023-01-17T05:14:10.992Z,2.08
2023-01-17T05:15:10.952Z,2.07
2023-01-17T05:16:10.997Z,2.05
2023-01-17T05:17:10.927Z,1.98
2023-01-17T05:18:10.911Z,2.04
2023-01-17T05:19:10.908Z,1.98
2023-01-17T05:20:10.855Z,2.09
2023-01-17T05:21:10.846Z,2.05
2023-01-17T05:22:10.818Z,2.14
2023-01-17T05:23:10.841Z,2.14
2023-01-17T05:24:10.791Z,2.09
2023-01-17T05:25:10.764Z,2.33
2023-01-17T05:26:10.751Z,2.30
2023-01-17T05:27:10.731Z,2.33
2023-01-17T05:28:10.709Z,2.26
2023-01-17T05:29:10.692Z,2.23
2023-01-17T05:30:10.695Z,2.09
2023-01-17T05:31:10.669Z,2.11
2023-01-17T05:32:10.635Z,2.11
2023-01-17T05:33:10.627Z,2.07
2023-01-17T05:34:10.598Z,2.02
2023-01-17T05:35:10.584Z,2.01
2023-01-17T05:36:10.565Z,2.05
2023-01-17T05:37:10.545Z,2.02
2023-01-17T05:38:10.528Z,1.93
2023-01-17T05:39:10.545Z,1.83
2023-01-17T05:40:10.502Z,1.86
2023-01-17T05:41:10.471Z,1.85
2023-01-17T05:42:10.457Z,1.81
2023-01-17T05:43:10.432Z,1.85
2023-01-17T05:44:10.421Z,1.75
2023-01-17T05:45:10.407Z,1.90
2023-01-17T05:46:10.407Z,1.92
2023-01-17T05:47:10.362Z,1.92
2023-01-17T05:48:10.348Z,1.83
2023-01-17T05:49:10.323Z,1.92
2023-01-17T05:50:10.314Z,1.82
2023-01-17T05:51:10.288Z,1.89
2023-01-17T05:52:10.280Z,1.81
2023-01-17T05:53:10.260Z,1.81
2023-01-17T05:54:10.241Z,1.83
2023-01-17T05:55:10.324Z,1.83
2023-01-17T05:56:10.200Z,1.90
2023-01-17T05:57:10.183Z,1.93
2023-01-17T05:58:10.164Z,2.02
2023-01-17T05:59:12.017Z,2.00
2023-01-17T06:00:10.130Z,1.98
2023-01-17T06:01:10.244Z,1.90
2023-01-17T06:02:10.106Z,2.01
2023-01-17T06:03:10.070Z,2.08
2023-01-17T06:04:10.058Z,2.07
2023-01-17T06:05:10.085Z,2.09
2023-01-17T06:06:10.017Z,2.32
2023-01-17T06:07:09.998Z,2.43
2023-01-17T06:08:09.983Z,2.58
2023-01-17T06:09:09.962Z,2.59
2023-01-17T06:10:09.957Z,2.61
2023-01-17T06:11:09.949Z,2.53
2023-01-17T06:12:09.910Z,2.47
2023-01-17T06:13:09.886Z,2.41
2023-01-17T06:14:09.873Z,2.33
2023-01-17T06:15:09.858Z,2.23
2023-01-17T06:16:09.893Z,2.12
2023-01-17T06:17:09.814Z,2.15
2023-01-17T06:18:09.800Z,2.12
2023-01-17T06:19:09.779Z,2.14
2023-01-17T06:20:09.763Z,2.02
2023-01-17T06:21:09.742Z,2.05
2023-01-17T06:22:09.726Z,2.07
2023-01-17T06:23:09.728Z,2.15
2023-01-17T06:24:09.691Z,2.12
2023-01-17T06:25:09.667Z,2.15
2023-01-17T06:26:09.658Z,2.15
2023-01-17T06:27:09.651Z,2.11
2023-01-17T06:28:09.620Z,2.05
2023-01-17T06:29:09.596Z,2.01
2023-01-17T06:30:09.581Z,2.04
2023-01-17T06:31:09.682Z,2.01
2023-01-17T06:32:09.552Z,2.01
2023-01-17T06:33:09.525Z,1.86
2023-01-17T06:34:09.516Z,2.09
2023-01-17T06:35:09.488Z,2.04
2023-01-17T06:36:09.471Z,2.08
2023-01-17T06:37:09.448Z,2.04
2023-01-17T06:38:09.435Z,2.07
2023-01-17T06:39:09.414Z,2.05
2023-01-17T06:40:09.398Z,2.07
2023-01-17T06:41:09.397Z,2.04
2023-01-17T06:42:09.360Z,2.14
2023-01-17T06:43:09.360Z,2.07
2023-01-17T06:44:09.327Z,2.15
2023-01-17T06:45:09.303Z,2.40
2023-01-17T06:46:09.289Z,2.48
2023-01-17T06:47:09.272Z,2.51
2023-01-17T06:48:09.251Z,2.63
2023-01-17T06:49:09.229Z,2.63
2023-01-17T06:50:09.221Z,2.62
2023-01-17T06:51:09.195Z,2.63
2023-01-17T06:52:09.181Z,2.74
2023-01-17T06:53:09.159Z,2.80
2023-01-17T06:54:09.142Z,2.86
2023-01-17T06:55:09.123Z,2.80
2023-01-17T06:56:09.107Z,2.68
2023-01-17T06:57:09.084Z,2.59
2023-01-17T06:58:09.071Z,2.53
2023-01-17T06:59:09.066Z,2.44
2023-01-17T07:00:09.034Z,2.37
2023-01-17T07:01:09.128Z,2.36
2023-01-17T07:02:08.998Z,2.25
2023-01-17T07:03:08.978Z,2.25
2023-01-17T07:04:09.042Z,2.18
2023-01-17T07:05:08.943Z,2.14
2023-01-17T07:06:08.922Z,2.15
2023-01-17T07:07:08.903Z,2.26
2023-01-17T07:08:08.890Z,2.20
2023-01-17T07:09:08.866Z,2.32
2023-01-17T07:10:08.851Z,2.38
2023-01-17T07:11:08.838Z,2.41
2023-01-17T07:12:08.815Z,2.44
2023-01-17T07:13:08.793Z,2.43
2023-01-17T07:14:08.780Z,2.32
2023-01-17T07:15:08.783Z,2.63
2023-01-17T07:16:08.839Z,2.50
2023-01-17T07:17:08.722Z,2.47
2023-01-17T07:18:08.734Z,2.43
2023-01-17T07:19:08.685Z,2.38
2023-01-17T07:20:08.695Z,2.44
2023-01-17T07:21:08.648Z,2.32
2023-01-17T07:22:08.643Z,2.50
2023-01-17T07:23:08.616Z,2.44
2023-01-17T07:24:08.701Z,2.74
2023-01-17T07:25:08.573Z,3.02
2023-01-17T07:26:08.561Z,3.08
2023-01-17T07:27:08.542Z,2.90
2023-01-17T07:28:08.552Z,2.92
2023-01-17T07:29:08.505Z,2.86
2023-01-17T07:30:08.490Z,2.92
2023-01-17T07:31:08.556Z,3.04
2023-01-17T07:32:08.454Z,2.90
2023-01-17T07:33:08.435Z,2.74
2023-01-17T07:34:08.417Z,2.97
2023-01-17T07:35:08.403Z,2.99
2023-01-17T07:36:08.383Z,2.92
2023-01-17T07:37:08.359Z,2.99
2023-01-17T07:38:08.343Z,2.92
2023-01-17T07:39:08.333Z,2.87
2023-01-17T07:40:08.317Z,2.86
2023-01-17T07:41:10.901Z,2.81
2023-01-17T07:42:08.276Z,2.84
2023-01-17T07:43:08.251Z,2.81
2023-01-17T07:44:08.238Z,2.65
2023-01-17T07:45:08.221Z,2.69
2023-01-17T07:46:08.206Z,2.71
2023-01-17T07:47:08.198Z,2.76
2023-01-17T07:48:08.165Z,2.69
2023-01-17T07:49:08.143Z,2.79
2023-01-17T07:50:08.127Z,2.79
2023-01-17T07:51:08.109Z,2.76
2023-01-17T07:52:08.103Z,2.86
2023-01-17T07:53:08.069Z,2.86
2023-01-17T07:54:08.058Z,2.73
2023-01-17T07:55:08.037Z,2.77
2023-01-17T07:56:08.020Z,2.98
2023-01-17T07:57:08.002Z,2.89
2023-01-17T07:58:07.982Z,2.97
2023-01-17T07:59:07.961Z,2.97
2023-01-17T08:00:07.952Z,2.99
2023-01-17T08:01:08.054Z,2.90
2023-01-17T08:02:07.919Z,2.90
2023-01-17T08:03:07.918Z,2.80
2023-01-17T08:04:07.971Z,2.87
2023-01-17T08:05:07.859Z,2.83
2023-01-17T08:06:07.839Z,2.71
2023-01-17T08:07:07.832Z,2.83
2023-01-17T08:08:07.805Z,2.73
2023-01-17T08:09:07.781Z,2.80
2023-01-17T08:10:07.769Z,2.76
2023-01-17T08:11:07.748Z,2.73
2023-01-17T08:12:07.732Z,2.76
2023-01-17T08:13:07.710Z,2.84
2023-01-17T08:14:07.698Z,3.05
2023-01-17T08:15:07.675Z,3.23
2023-01-17T08:16:07.708Z,3.56
2023-01-17T08:17:07.641Z,3.89
2023-01-17T08:18:07.625Z,3.95
2023-01-17T08:19:07.629Z,4.07
2023-01-17T08:20:07.590Z,4.14
2023-01-17T08:21:07.568Z,4.20
2023-01-17T08:22:07.570Z,4.16
2023-01-17T08:23:07.532Z,4.16
2023-01-17T08:24:07.561Z,4.25
2023-01-17T08:25:07.530Z,4.34
2023-01-17T08:26:07.484Z,4.46
2023-01-17T08:27:07.461Z,4.50
2023-01-17T08:28:07.472Z,4.64
2023-01-17T08:29:07.426Z,4.59
2023-01-17T08:30:07.420Z,4.56
2023-01-17T08:31:07.389Z,4.50
2023-01-17T08:32:07.378Z,4.49
2023-01-17T08:33:07.405Z,4.61
2023-01-17T08:34:07.345Z,4.56
2023-01-17T08:35:07.354Z,4.69
2023-01-17T08:36:07.305Z,4.71
2023-01-17T08:37:07.285Z,4.71
2023-01-17T08:38:07.283Z,4.75
2023-01-17T08:39:07.249Z,4.75
2023-01-17T08:40:07.239Z,4.88
2023-01-17T08:41:07.215Z,4.91
2023-01-17T08:42:07.198Z,4.99
2023-01-17T08:43:07.177Z,5.01
2023-01-17T08:44:07.171Z,5.05
2023-01-17T08:45:07.148Z,5.04
2023-01-17T08:46:07.225Z,5.05
2023-01-17T08:47:07.112Z,5.23
2023-01-17T08:48:07.094Z,5.22
2023-01-17T08:49:07.072Z,5.30
2023-01-17T08:50:07.168Z,5.30
2023-01-17T08:51:07.062Z,5.20
2023-01-17T08:52:07.024Z,5.01
2023-01-17T08:53:07.003Z,4.87
2023-01-17T08:54:06.996Z,4.86
2023-01-17T08:55:06.969Z,4.71
2023-01-17T08:56:06.955Z,4.75
2023-01-17T08:57:06.935Z,4.83
2023-01-17T08:58:06.918Z,4.79
2023-01-17T08:59:06.898Z,4.79
2023-01-17T09:00:06.884Z,4.67
2023-01-17T09:01:07.079Z,4.74
2023-01-17T09:02:06.983Z,4.69
2023-01-17T09:03:06.828Z,4.61
2023-01-17T09:04:06.868Z,4.75
2023-01-17T09:05:06.800Z,4.56
2023-01-17T09:06:06.790Z,4.64
2023-01-17T09:07:06.789Z,4.59
2023-01-17T09:08:06.744Z,4.64
2023-01-17T09:09:06.730Z,4.68
2023-01-17T09:10:06.709Z,4.80
2023-01-17T09:11:06.689Z,4.83
2023-01-17T09:12:06.675Z,4.71
2023-01-17T09:13:06.661Z,4.93
2023-01-17T09:14:06.639Z,5.01
2023-01-17T09:15:06.618Z,5.05
2023-01-17T09:16:06.607Z,5.09
2023-01-17T09:17:06.587Z,4.97
2023-01-17T09:18:06.570Z,4.75
2023-01-17T09:19:06.551Z,4.68
2023-01-17T09:20:06.536Z,4.62
2023-01-17T09:21:06.518Z,4.43
2023-01-17T09:22:06.502Z,4.34
2023-01-17T09:23:06.513Z,4.18
2023-01-17T09:24:06.480Z,4.20
2023-01-17T09:25:06.444Z,4.02
2023-01-17T09:26:06.431Z,4.10
2023-01-17T09:27:06.411Z,4.13
2023-01-17T09:28:06.395Z,4.25
2023-01-17T09:29:06.386Z,4.34
2023-01-17T09:30:06.401Z,4.46
2023-01-17T09:31:06.372Z,4.44
2023-01-17T09:32:06.327Z,4.32
2023-01-17T09:33:06.311Z,4.28
2023-01-17T09:34:06.292Z,4.32
2023-01-17T09:35:06.273Z,4.42
2023-01-17T09:36:06.259Z,4.32
2023-01-17T09:37:06.238Z,4.26
2023-01-17T09:38:06.220Z,4.34
2023-01-17T09:39:06.221Z,4.26
2023-01-17T09:40:06.184Z,4.35
2023-01-17T09:41:06.166Z,4.32
2023-01-17T09:42:06.150Z,4.29
2023-01-17T09:43:06.133Z,4.18
2023-01-17T09:44:06.126Z,3.93
2023-01-17T09:45:06.094Z,3.71
2023-01-17T09:46:06.130Z,3.70
2023-01-17T09:47:06.187Z,3.52
2023-01-17T09:48:06.047Z,3.46
2023-01-17T09:49:06.027Z,3.44
2023-01-17T09:50:06.008Z,3.37
2023-01-17T09:51:05.989Z,3.44
2023-01-17T09:52:05.974Z,3.42
2023-01-17T09:53:05.951Z,3.42
2023-01-17T09:54:05.934Z,3.35
2023-01-17T09:55:07.990Z,3.50
2023-01-17T09:56:05.897Z,3.50
2023-01-17T09:57:05.882Z,3.68
2023-01-17T09:58:05.864Z,3.64
2023-01-17T09:59:05.848Z,3.60
2023-01-17T10:00:05.844Z,3.71
2023-01-17T10:01:05.890Z,3.98
2023-01-17T10:02:06.029Z,4.10
2023-01-17T10:03:05.898Z,4.26
2023-01-17T10:04:05.792Z,4.36
2023-01-17T10:05:05.799Z,4.62
2023-01-17T10:06:05.716Z,4.79
2023-01-17T10:07:05.729Z,4.67
2023-01-17T10:08:05.687Z,4.71
2023-01-17T10:09:05.671Z,4.72
2023-01-17T10:10:05.672Z,4.65
2023-01-17T10:11:05.656Z,4.69
2023-01-17T10:12:05.613Z,4.80
2023-01-17T10:13:05.594Z,4.54
2023-01-17T10:14:05.578Z,4.56
2023-01-17T10:15:05.561Z,4.50
2023-01-17T10:16:05.542Z,4.43
2023-01-17T10:17:05.527Z,4.31
2023-01-17T10:18:05.511Z,4.14
2023-01-17T10:19:05.492Z,4.10
2023-01-17T10:20:05.469Z,4.00
2023-01-17T10:21:05.471Z,3.90
2023-01-17T10:22:05.440Z,3.88
2023-01-17T10:23:05.435Z,4.04
2023-01-17T10:24:05.418Z,3.92
2023-01-17T10:25:05.380Z,3.93
2023-01-17T10:26:05.368Z,3.92
2023-01-17T10:27:05.368Z,3.93
2023-01-17T10:28:05.343Z,4.00
2023-01-17T10:29:05.309Z,3.95
2023-01-17T10:30:05.290Z,3.99
2023-01-17T10:31:05.311Z,3.99
2023-01-17T10:32:05.256Z,3.90
2023-01-17T10:33:05.237Z,3.89
2023-01-17T10:34:05.227Z,3.92
2023-01-17T10:35:05.228Z,3.93
2023-01-17T10:36:05.184Z,3.99
2023-01-17T10:37:05.168Z,3.96
2023-01-17T10:38:05.147Z,3.89
2023-01-17T10:39:05.131Z,3.92
2023-01-17T10:40:05.125Z,3.90
2023-01-17T10:41:05.098Z,3.92
2023-01-17T10:42:05.075Z,3.99
2023-01-17T10:43:05.119Z,3.99
2023-01-17T10:44:05.039Z,3.98
2023-01-17T10:45:05.024Z,3.93
2023-01-17T10:46:05.055Z,4.02
2023-01-17T10:47:04.990Z,4.11
2023-01-17T10:48:04.982Z,4.04
2023-01-17T10:49:04.968Z,4.00
2023-01-17T10:50:04.935Z,3.98
2023-01-17T10:51:04.920Z,4.06
2023-01-17T10:52:04.948Z,3.93
2023-01-17T10:53:04.881Z,3.98
2023-01-17T10:54:04.864Z,3.98
2023-01-17T10:55:04.893Z,4.08
2023-01-17T10:56:04.829Z,3.98
2023-01-17T10:57:04.823Z,3.96
2023-01-17T10:58:04.789Z,4.06
2023-01-17T10:59:04.802Z,4.10
2023-01-17T11:00:04.755Z,3.99
2023-01-17T11:01:04.827Z,4.08
2023-01-17T11:02:04.721Z,4.07
2023-01-17T11:03:04.721Z,4.00
2023-01-17T11:04:04.681Z,4.08
2023-01-17T11:05:04.666Z,4.11
2023-01-17T11:06:04.646Z,4.10
2023-01-17T11:07:04.631Z,4.14
2023-01-17T11:08:04.619Z,4.10
2023-01-17T11:09:04.595Z,4.20
2023-01-17T11:10:04.573Z,4.17
2023-01-17T11:11:04.565Z,4.21
2023-01-17T11:12:04.543Z,4.35
2023-01-17T11:13:04.525Z,4.34
2023-01-17T11:14:04.507Z,4.35
2023-01-17T11:15:04.561Z,4.57
2023-01-17T11:16:04.567Z,4.61
2023-01-17T11:17:04.455Z,4.64
2023-01-17T11:18:04.433Z,4.91
2023-01-17T11:19:04.420Z,4.69
2023-01-17T11:20:04.398Z,4.75
2023-01-17T11:21:04.380Z,4.84
2023-01-17T11:22:04.358Z,4.80
2023-01-17T11:23:04.375Z,4.79
2023-01-17T11:24:04.327Z,4.65
2023-01-17T11:25:04.315Z,4.72
2023-01-17T11:26:04.293Z,4.83
2023-01-17T11:27:04.283Z,4.83
2023-01-17T11:28:04.252Z,4.86
2023-01-17T11:29:04.238Z,4.93
2023-01-17T11:30:04.230Z,4.96
2023-01-17T11:31:04.326Z,4.99
2023-01-17T11:32:04.187Z,4.96
2023-01-17T11:33:04.178Z,5.01
2023-01-17T11:34:04.148Z,5.04
2023-01-17T11:35:04.133Z,4.99
2023-01-17T11:36:04.116Z,4.91
2023-01-17T11:37:04.097Z,4.88
2023-01-17T11:38:04.082Z,4.91
2023-01-17T11:39:04.084Z,4.84
2023-01-17T11:40:04.052Z,4.77
2023-01-17T11:41:04.047Z,4.87
2023-01-17T11:42:04.009Z,4.86
2023-01-17T11:43:03.993Z,4.87
2023-01-17T11:44:03.973Z,4.86
2023-01-17T11:45:03.957Z,4.72
2023-01-17T11:46:04.004Z,4.68
2023-01-17T11:47:03.949Z,4.67
2023-01-17T11:48:03.904Z,4.62
2023-01-17T11:49:03.893Z,4.57
2023-01-17T11:50:03.867Z,4.57
2023-01-17T11:51:03.856Z,4.51
2023-01-17T11:52:03.834Z,4.44
2023-01-17T11:53:03.819Z,4.46
2023-01-17T11:54:03.799Z,4.36
2023-01-17T11:55:03.783Z,4.43
2023-01-17T11:56:03.767Z,4.38
2023-01-17T11:57:03.748Z,4.34
2023-01-17T11:58:03.729Z,4.34
2023-01-17T11:59:03.713Z,4.31
2023-01-17T12:00:03.710Z,4.34
2023-01-17T12:01:03.764Z,4.32
2023-01-17T12:02:03.658Z,4.35
2023-01-17T12:03:03.677Z,4.32
2023-01-17T12:04:03.671Z,4.38
2023-01-17T12:05:03.658Z,4.31
2023-01-17T12:06:03.595Z,4.32
2023-01-17T12:07:03.612Z,4.28
2023-01-17T12:08:03.555Z,4.29
2023-01-17T12:09:03.536Z,4.35
2023-01-17T12:10:03.524Z,4.35
2023-01-17T12:11:03.551Z,4.35
2023-01-17T12:12:04.488Z,4.38
2023-01-17T12:13:03.466Z,4.34
2023-01-17T12:14:03.442Z,4.34
2023-01-17T12:15:03.431Z,4.38
2023-01-17T12:16:03.510Z,4.36
2023-01-17T12:17:03.398Z,4.36
2023-01-17T12:18:03.373Z,4.39
2023-01-17T12:19:03.382Z,4.42
2023-01-17T12:20:03.338Z,4.49
2023-01-17T12:21:03.331Z,4.44
2023-01-17T12:22:03.317Z,4.46
2023-01-17T12:23:03.293Z,4.43
2023-01-17T12:24:03.266Z,4.42
2023-01-17T12:25:03.303Z,4.54
2023-01-17T12:26:03.233Z,4.42
2023-01-17T12:27:03.219Z,4.47
2023-01-17T12:28:03.199Z,4.54
2023-01-17T12:29:03.188Z,4.61
2023-01-17T12:30:03.164Z,4.46
2023-01-17T12:31:03.230Z,4.65
2023-01-17T12:32:03.136Z,4.64
2023-01-17T12:33:03.112Z,4.69
2023-01-17T12:34:03.090Z,4.71
2023-01-17T12:35:03.102Z,4.77
2023-01-17T12:36:03.055Z,4.77
2023-01-17T12:37:03.058Z,4.65
2023-01-17T12:38:05.148Z,4.69
2023-01-17T12:39:03.013Z,4.79
2023-01-17T12:40:02.984Z,5.01
2023-01-17T12:41:02.972Z,4.93
2023-01-17T12:42:02.949Z,4.97
2023-01-17T12:43:02.949Z,4.91
2023-01-17T12:44:02.916Z,4.79
2023-01-17T12:45:02.912Z,4.71
2023-01-17T12:46:02.881Z,4.80
2023-01-17T12:47:02.866Z,4.79
2023-01-17T12:48:02.851Z,4.71
2023-01-17T12:49:02.829Z,4.71
2023-01-17T12:50:02.824Z,4.64
2023-01-17T12:51:02.818Z,4.64
2023-01-17T12:52:02.773Z,4.54
2023-01-17T12:53:02.757Z,4.56
2023-01-17T12:54:02.739Z,4.53
2023-01-17T12:55:02.728Z,4.54
2023-01-17T12:56:02.732Z,4.43
2023-01-17T12:57:02.688Z,4.44
2023-01-17T12:58:02.667Z,4.38
2023-01-17T12:59:02.655Z,4.43
2023-01-17T13:00:02.667Z,4.38
2023-01-17T13:01:02.690Z,4.35
2023-01-17T13:02:02.702Z,4.35
2023-01-17T13:03:02.587Z,4.34
2023-01-17T13:04:02.579Z,4.32
2023-01-17T13:05:02.551Z,4.34
2023-01-17T13:06:02.526Z,4.31
2023-01-17T13:07:02.630Z,4.31
2023-01-17T13:08:02.495Z,4.31
2023-01-17T13:09:02.479Z,4.34
2023-01-17T13:10:02.456Z,4.38
2023-01-17T13:11:02.443Z,4.44
2023-01-17T13:12:02.420Z,4.49
2023-01-17T13:13:02.408Z,4.54
2023-01-17T13:14:02.405Z,4.51
2023-01-17T13:15:02.374Z,4.46
2023-01-17T13:16:02.426Z,4.43
2023-01-17T13:17:02.334Z,4.43
2023-01-17T13:18:02.313Z,4.43
2023-01-17T13:19:02.298Z,4.38
2023-01-17T13:20:02.283Z,4.42